Главная страница
METAR-TAF:

METAR-TAF

Аэропорты :

Rørvik, Норвегия

широта: 64-50N, долгота: 011-09E, высота над уровнем моря: 4 м

Текущие метеонаблюдения

Эта сводка был подготовлена 17 минут назад, в 14:50 UTC
Ветер 9 Узел от юго-западный
Температура 16°C
Влажность 72%
Давление 1027 hPa
Видимость 10 км и более
небольшая облачность на высоте 2000 фута, мощно-кучевые.
небольшая облачность на высоте 3000 фута

METAR: ENRM 091450Z 23009KT 9999 FEW020TCU FEW030 16/11 Q1027

Время: 17:07 (15:07 UTC)

Прогноз

Эта сводка был подготовлена 1 час и 7 минут назад, в 14:00 UTC
Прогноз действительный с 09-го 15 UTC до 09-го 21 UTC
Ветер 12 Узел от западный-юго-западный
Видимость 10 км и более
Рассеянная облачность на высоте 1800 фута
изменения
С 09-го 16 UTC до 09-го 18 UTC
Ветер 5 Узел переменных направлений

TAF: ENRM 091400Z 0915/0921 25012KT 9999 BKN018 BECMG 0916/0918 VRB05KT

Метеонаблюдения и прогнозы для более 4000 аэропортов (сводки METAR и TAF).

Имеющиеся станции представлены на карте желтыми и красными точками.

Чтобы увидеть название станции, наведите на нее мышь.

Затем щелкните, чтобы увидеть метеонаблюдения и метеопрогнозы.

Управление картой: чтобы увеличить масштаб, щелкните зеленые кнопки с черным крестиком; чтобы уменьшить масштаб, щелкните зеленую кнопку с тире; для просмотра соседних карт щелкайте зеленые стрелки.


METAR-TAF: